createdAt,value
2019-05-02T00:00:15.501Z,3.60
2019-05-02T00:05:33.186Z,3.87
2019-05-02T00:10:49.825Z,3.70
2019-05-02T00:16:09.206Z,3.93
2019-05-02T00:21:23.245Z,4.00
2019-05-02T00:26:38.969Z,3.67
2019-05-02T00:31:54.464Z,3.60
2019-05-02T00:37:10.628Z,3.80
2019-05-02T00:42:26.416Z,3.33
2019-05-02T00:47:58.384Z,3.70
2019-05-02T00:53:13.771Z,3.57
2019-05-02T00:58:31.982Z,3.37
2019-05-02T01:03:52.155Z,3.57
2019-05-02T01:09:10.902Z,3.40
2019-05-02T01:14:27.202Z,3.63
2019-05-02T01:19:41.893Z,3.77
2019-05-02T01:24:57.751Z,3.70
2019-05-02T01:30:27.868Z,3.33
2019-05-02T01:35:53.202Z,3.53
2019-05-02T01:41:09.082Z,3.77
2019-05-02T01:46:25.149Z,3.50
2019-05-02T01:51:41.988Z,3.70
2019-05-02T01:56:58.129Z,2.77
2019-05-02T02:02:14.032Z,3.60
2019-05-02T02:07:29.588Z,4.37
2019-05-02T02:13:02.766Z,3.57
2019-05-02T02:18:03.390Z,3.40
2019-05-02T02:23:28.897Z,3.70
2019-05-02T02:28:44.970Z,3.47
2019-05-02T02:34:00.791Z,3.67
2019-05-02T02:39:17.264Z,3.63
2019-05-02T02:44:50.576Z,3.13
2019-05-02T02:50:07.190Z,3.60
2019-05-02T02:55:24.533Z,3.80
2019-05-02T03:00:41.466Z,4.97
2019-05-02T03:06:04.559Z,3.87
2019-05-02T03:11:23.826Z,4.27
2019-05-02T03:16:45.592Z,3.70
2019-05-02T03:22:01.222Z,4.57
2019-05-02T03:27:13.206Z,4.00
2019-05-02T03:32:34.571Z,4.03
2019-05-02T03:37:51.335Z,4.30
2019-05-02T03:43:06.286Z,4.57
2019-05-02T03:48:25.323Z,4.43
2019-05-02T03:53:40.466Z,4.63
2019-05-02T03:58:58.190Z,4.80
2019-05-02T04:04:14.192Z,4.37
2019-05-02T04:09:42.364Z,3.60
2019-05-02T04:14:55.902Z,4.10
2019-05-02T04:20:12.758Z,4.43
2019-05-02T04:25:34.030Z,4.73
2019-05-02T04:30:51.324Z,4.33
2019-05-02T04:36:13.461Z,4.47
2019-05-02T04:41:28.570Z,4.40
2019-05-02T04:46:39.752Z,4.20
2019-05-02T04:52:04.564Z,4.30
2019-05-02T04:57:13.225Z,3.97
2019-05-02T05:02:35.900Z,4.53
2019-05-02T05:07:49.417Z,3.60
2019-05-02T05:13:12.079Z,4.37
2019-05-02T05:18:27.383Z,3.93
2019-05-02T05:24:15.300Z,4.53
2019-05-02T05:29:31.231Z,3.90
2019-05-02T05:34:47.840Z,4.27
2019-05-02T05:40:04.154Z,4.37
2019-05-02T05:45:19.734Z,4.37
2019-05-02T05:50:37.704Z,4.50
2019-05-02T05:55:58.137Z,4.77
2019-05-02T06:01:10.670Z,3.80
2019-05-02T06:06:27.394Z,4.33
2019-05-02T06:11:43.482Z,4.67
2019-05-02T06:16:59.122Z,4.30
2019-05-02T06:22:16.516Z,3.87
2019-05-02T06:27:32.361Z,4.37
2019-05-02T06:32:50.020Z,4.50
2019-05-02T06:38:05.576Z,5.07
2019-05-02T06:43:21.205Z,4.80
2019-05-02T06:48:36.600Z,4.87
2019-05-02T06:53:52.281Z,4.67
2019-05-02T06:59:07.985Z,5.07
2019-05-02T07:04:25.022Z,5.13
2019-05-02T07:09:42.454Z,4.87
2019-05-02T07:15:01.567Z,4.83
2019-05-02T07:20:16.207Z,5.27
2019-05-02T07:25:32.034Z,5.73
2019-05-02T07:30:47.923Z,5.07
2019-05-02T07:36:03.680Z,5.00
2019-05-02T07:41:19.363Z,4.87
2019-05-02T07:46:35.781Z,5.30
2019-05-02T07:51:52.451Z,5.37
2019-05-02T07:57:09.237Z,5.63
2019-05-02T08:02:26.300Z,6.33
2019-05-02T08:07:42.381Z,6.03
2019-05-02T08:12:58.297Z,6.20
2019-05-02T08:18:14.031Z,6.03
2019-05-02T08:23:29.844Z,6.43
2019-05-02T08:28:51.850Z,6.10
2019-05-02T08:34:14.742Z,5.90
2019-05-02T08:39:33.104Z,6.17
2019-05-02T08:44:50.890Z,5.97
2019-05-02T08:50:00.972Z,6.30
2019-05-02T08:55:16.887Z,6.30
2019-05-02T09:00:37.632Z,6.57
2019-05-02T09:05:50.287Z,7.10
2019-05-02T09:11:06.014Z,5.43
2019-05-02T09:16:28.941Z,6.60
2019-05-02T09:21:40.251Z,6.70
2019-05-02T09:26:55.922Z,5.93
2019-05-02T09:32:12.566Z,5.40
2019-05-02T09:37:28.549Z,6.20
2019-05-02T09:42:47.525Z,5.57
2019-05-02T09:48:07.134Z,6.17
2019-05-02T09:53:24.178Z,5.23
2019-05-02T09:58:37.050Z,5.90
2019-05-02T10:03:53.206Z,5.07
2019-05-02T10:09:12.120Z,5.03
2019-05-02T10:14:28.323Z,5.60
2019-05-02T10:19:49.146Z,5.20
2019-05-02T10:25:03.615Z,5.30
2019-05-02T10:30:22.419Z,5.50
2019-05-02T10:35:43.363Z,5.13
2019-05-02T10:41:01.841Z,4.50
2019-05-02T10:46:27.883Z,4.80
2019-05-02T10:51:49.163Z,4.90
2019-05-02T10:57:02.376Z,5.13
2019-05-02T11:02:32.763Z,5.40
2019-05-02T11:07:48.343Z,5.40
2019-05-02T11:13:09.684Z,5.53
2019-05-02T11:18:40.374Z,5.20
2019-05-02T11:23:46.094Z,5.20
2019-05-02T11:29:03.066Z,4.83
2019-05-02T11:34:19.373Z,4.67
2019-05-02T11:39:43.738Z,5.73
2019-05-02T11:44:52.608Z,5.03
2019-05-02T11:50:08.502Z,5.63
2019-05-02T11:55:28.900Z,4.97
2019-05-02T12:00:45.449Z,5.10
2019-05-02T12:05:58.566Z,5.03
2019-05-02T12:11:17.719Z,5.20
2019-05-02T12:16:32.444Z,5.70
2019-05-02T12:21:57.200Z,5.97
2019-05-02T12:27:12.774Z,5.90
2019-05-02T12:32:28.615Z,5.87
2019-05-02T12:37:46.990Z,5.30
2019-05-02T12:43:02.503Z,5.60
2019-05-02T12:48:18.352Z,5.80
2019-05-02T12:53:33.922Z,4.90
2019-05-02T12:58:50.141Z,6.03
2019-05-02T13:04:12.474Z,5.47
2019-05-02T13:09:28.710Z,5.70
2019-05-02T13:14:45.118Z,5.97
2019-05-02T13:20:04.914Z,6.13
2019-05-02T13:25:27.232Z,5.70
2019-05-02T13:30:59.707Z,6.13
2019-05-02T13:36:47.099Z,6.43
2019-05-02T13:42:05.293Z,6.17
2019-05-02T13:47:25.395Z,6.27
2019-05-02T13:52:45.234Z,6.13
2019-05-02T13:58:02.359Z,5.80
2019-05-02T14:03:19.305Z,5.70
2019-05-02T14:08:43.026Z,5.97
2019-05-02T14:13:58.904Z,5.60
2019-05-02T14:19:14.641Z,6.53
2019-05-02T14:24:31.874Z,5.97
2019-05-02T14:29:47.777Z,5.70
2019-05-02T14:35:18.709Z,5.77
2019-05-02T14:40:35.911Z,5.03
2019-05-02T14:45:57.531Z,5.20
2019-05-02T14:51:11.854Z,5.23
2019-05-02T14:56:47.795Z,5.43
2019-05-02T15:02:07.719Z,4.50
2019-05-02T15:07:26.653Z,4.53
2019-05-02T15:12:42.297Z,4.67
2019-05-02T15:17:58.534Z,5.10
2019-05-02T15:23:19.551Z,5.23
2019-05-02T15:28:37.385Z,4.50
2019-05-02T15:34:17.908Z,4.77
2019-05-02T15:44:52.208Z,4.40
2019-05-02T15:50:08.832Z,4.83
2019-05-02T15:55:24.766Z,4.80
2019-05-02T16:00:42.838Z,4.90
2019-05-02T16:05:58.682Z,4.80
2019-05-02T16:11:17.043Z,4.97
2019-05-02T16:16:36.621Z,5.23
2019-05-02T16:21:59.553Z,5.60
2019-05-02T16:27:16.461Z,5.33
2019-05-02T16:32:42.127Z,4.60
2019-05-02T16:37:59.694Z,4.33
2019-05-02T16:43:15.711Z,3.97
2019-05-02T16:48:37.419Z,4.17
2019-05-02T16:53:49.130Z,3.87
2019-05-02T16:59:05.503Z,4.47
2019-05-02T17:04:22.334Z,4.33
2019-05-02T17:10:14.610Z,4.17
2019-05-02T17:15:31.465Z,3.97
2019-05-02T17:20:52.034Z,3.73
2019-05-02T17:26:04.189Z,3.43
2019-05-02T17:31:23.084Z,3.33
2019-05-02T17:36:40.062Z,3.50
2019-05-02T17:41:55.799Z,3.97
2019-05-02T17:47:11.886Z,3.30
2019-05-02T17:52:42.750Z,3.57
2019-05-02T17:57:58.970Z,2.80
2019-05-02T18:03:15.511Z,2.93
2019-05-02T18:08:32.307Z,3.40
2019-05-02T18:14:22.099Z,3.53
2019-05-02T18:19:42.538Z,3.87
2019-05-02T18:24:58.530Z,3.93
2019-05-02T18:30:24.956Z,3.90
2019-05-02T18:35:45.123Z,3.20
2019-05-02T18:41:00.528Z,3.27
2019-05-02T18:46:19.992Z,3.50
2019-05-02T18:51:36.744Z,3.30
2019-05-02T18:56:55.351Z,3.30
2019-05-02T19:02:10.120Z,2.90
2019-05-02T19:07:33.152Z,2.70
2019-05-02T19:12:43.694Z,2.87
2019-05-02T19:18:10.696Z,3.00
2019-05-02T19:23:26.908Z,3.30
2019-05-02T19:29:15.696Z,3.13
2019-05-02T19:34:28.781Z,2.63
2019-05-02T19:39:48.793Z,3.33
2019-05-02T19:45:16.884Z,3.40
2019-05-02T19:50:43.950Z,3.03
2019-05-02T19:56:01.301Z,3.17
2019-05-02T20:01:17.518Z,3.20
2019-05-02T20:06:34.976Z,3.27
2019-05-02T20:11:52.070Z,3.33
2019-05-02T20:17:09.379Z,3.13
2019-05-02T20:22:25.349Z,3.13
2019-05-02T20:27:42.184Z,3.10
2019-05-02T20:32:58.538Z,3.60
2019-05-02T20:38:14.625Z,3.87
2019-05-02T20:43:32.223Z,3.70
2019-05-02T20:48:47.989Z,3.73
2019-05-02T20:54:04.983Z,3.37
2019-05-02T20:59:23.826Z,3.53
2019-05-02T21:04:39.933Z,4.43
2019-05-02T21:10:18.978Z,4.23
2019-05-02T21:15:39.202Z,4.43
2019-05-02T21:20:55.454Z,5.17
2019-05-02T21:26:11.495Z,6.40
2019-05-02T21:31:28.790Z,6.73
2019-05-02T21:36:45.441Z,7.13
2019-05-02T21:42:02.537Z,7.03
2019-05-02T21:47:18.614Z,7.10
2019-05-02T21:53:02.193Z,8.00
2019-05-02T21:58:18.048Z,7.87
2019-05-02T22:03:33.834Z,8.27
2019-05-02T22:08:49.716Z,7.90
2019-05-02T22:14:06.072Z,9.07
2019-05-02T22:19:22.096Z,8.83
2019-05-02T22:24:38.217Z,9.33
2019-05-02T22:29:54.715Z,9.10
2019-05-02T22:35:12.238Z,10.30
2019-05-02T22:40:28.354Z,8.43
2019-05-02T22:45:44.710Z,9.23
2019-05-02T22:51:00.647Z,9.90
2019-05-02T22:56:16.542Z,9.07
2019-05-02T23:01:32.456Z,10.07
2019-05-02T23:06:48.288Z,9.57
2019-05-02T23:12:04.769Z,9.93
2019-05-02T23:17:23.132Z,10.03
2019-05-02T23:22:39.138Z,10.33
2019-05-02T23:27:59.213Z,10.30
2019-05-02T23:33:15.044Z,9.57
2019-05-02T23:38:32.406Z,9.90
2019-05-02T23:43:48.065Z,9.33
2019-05-02T23:49:04.226Z,9.20
2019-05-02T23:54:22.024Z,9.23
2019-05-02T23:59:38.314Z,9.33
